createdAt,value
2019-03-06T00:01:08.347Z,12.05
2019-03-06T00:03:34.595Z,9.88
2019-03-06T00:06:00.833Z,13.22
2019-03-06T00:08:27.445Z,12.35
2019-03-06T00:10:53.663Z,9.85
2019-03-06T00:13:19.894Z,10.75
2019-03-06T00:15:46.666Z,12.18
2019-03-06T00:18:12.889Z,10.50
2019-03-06T00:20:39.137Z,11.30
2019-03-06T00:23:05.458Z,14.07
2019-03-06T00:25:31.719Z,11.80
2019-03-06T00:27:57.948Z,13.32
2019-03-06T00:30:35.463Z,12.60
2019-03-06T00:33:01.680Z,10.53
2019-03-06T00:35:35.707Z,11.75
2019-03-06T00:38:02.089Z,10.70
2019-03-06T00:40:30.373Z,12.30
2019-03-06T00:42:56.633Z,11.70
2019-03-06T00:45:22.875Z,13.35
2019-03-06T00:47:49.532Z,13.48
2019-03-06T00:50:15.907Z,12.43
2019-03-06T00:52:42.131Z,15.30
2019-03-06T00:55:10.198Z,11.05
2019-03-06T00:57:36.556Z,15.85
2019-03-06T01:00:12.253Z,12.82
2019-03-06T01:02:38.790Z,12.03
2019-03-06T01:05:07.036Z,9.95
2019-03-06T01:07:33.259Z,15.53
2019-03-06T01:09:59.819Z,14.07
2019-03-06T01:12:26.060Z,13.35
2019-03-06T01:14:52.315Z,12.55
2019-03-06T01:17:18.923Z,11.05
2019-03-06T01:19:45.176Z,14.68
2019-03-06T01:22:11.787Z,10.55
2019-03-06T01:24:38.038Z,12.95
2019-03-06T01:27:04.385Z,11.12
2019-03-06T01:29:30.760Z,10.93
2019-03-06T01:31:56.989Z,12.90
2019-03-06T01:37:08.137Z,12.63
2019-03-06T01:39:51.367Z,12.88
2019-03-06T01:42:19.806Z,10.95
2019-03-06T01:44:47.566Z,12.70
2019-03-06T01:47:13.807Z,10.53
2019-03-06T01:49:40.071Z,12.15
2019-03-06T01:52:06.299Z,9.40
2019-03-06T01:54:32.561Z,11.75
2019-03-06T01:56:58.799Z,9.20
2019-03-06T01:59:25.051Z,11.00
2019-03-06T02:01:51.603Z,11.25
2019-03-06T02:04:17.851Z,11.28
2019-03-06T02:06:50.464Z,13.45
2019-03-06T02:09:19.115Z,11.40
2019-03-06T02:11:45.341Z,10.90
2019-03-06T02:14:11.798Z,12.58
2019-03-06T02:16:38.376Z,12.13
2019-03-06T02:19:05.030Z,9.90
2019-03-06T02:21:31.551Z,12.47
2019-03-06T02:23:58.231Z,17.15
2019-03-06T02:26:24.462Z,11.83
2019-03-06T02:28:50.905Z,14.25
2019-03-06T02:31:17.240Z,13.65
2019-03-06T02:33:43.497Z,13.30
2019-03-06T02:36:09.720Z,13.78
2019-03-06T02:38:36.315Z,11.93
2019-03-06T02:41:02.639Z,14.73
2019-03-06T02:43:28.894Z,17.05
2019-03-06T02:45:55.143Z,18.15
2019-03-06T02:48:21.383Z,16.55
2019-03-06T02:50:47.611Z,18.52
2019-03-06T02:53:13.878Z,13.58
2019-03-06T02:55:40.108Z,13.83
2019-03-06T02:58:23.643Z,16.48
2019-03-06T03:01:10.347Z,17.10
2019-03-06T03:03:55.101Z,14.45
2019-03-06T03:06:23.681Z,16.00
2019-03-06T03:08:50.219Z,16.60
2019-03-06T03:11:16.466Z,13.70
2019-03-06T03:13:42.730Z,17.77
2019-03-06T03:16:08.955Z,15.50
2019-03-06T03:18:35.593Z,15.50
2019-03-06T03:21:02.172Z,16.17
2019-03-06T03:23:28.425Z,18.70
2019-03-06T03:25:54.652Z,13.40
2019-03-06T03:28:26.906Z,14.45
2019-03-06T03:30:53.153Z,15.50
2019-03-06T03:33:19.406Z,16.32
2019-03-06T03:35:45.642Z,17.10
2019-03-06T03:38:11.885Z,17.42
2019-03-06T03:40:38.131Z,18.00
2019-03-06T03:43:04.364Z,18.57
2019-03-06T03:45:31.035Z,15.58
2019-03-06T03:47:57.260Z,19.65
2019-03-06T03:50:23.814Z,18.07
2019-03-06T03:52:50.047Z,19.48
2019-03-06T03:55:17.015Z,18.30
2019-03-06T03:57:43.436Z,17.50
2019-03-06T04:00:12.910Z,20.75
2019-03-06T04:02:39.135Z,18.50
2019-03-06T04:05:07.616Z,19.12
2019-03-06T04:07:34.152Z,17.10
2019-03-06T04:10:00.676Z,20.77
2019-03-06T04:12:26.927Z,20.80
2019-03-06T04:14:53.157Z,20.55
2019-03-06T04:17:19.433Z,20.88
2019-03-06T04:19:45.662Z,23.40
2019-03-06T04:22:11.892Z,21.25
2019-03-06T04:24:38.157Z,22.32
2019-03-06T04:27:04.373Z,25.27
2019-03-06T04:29:30.738Z,22.00
2019-03-06T04:31:57.049Z,19.25
2019-03-06T04:34:23.262Z,25.45
2019-03-06T04:36:49.713Z,22.40
2019-03-06T04:39:15.932Z,24.12
2019-03-06T04:41:42.186Z,20.60
2019-03-06T04:44:08.800Z,24.07
2019-03-06T04:46:35.046Z,21.05
2019-03-06T04:49:01.287Z,23.50
2019-03-06T04:51:27.539Z,19.00
2019-03-06T04:53:54.119Z,20.62
2019-03-06T04:56:20.361Z,19.75
2019-03-06T04:58:46.583Z,20.57
2019-03-06T05:01:12.830Z,20.92
2019-03-06T05:03:39.344Z,21.23
2019-03-06T05:06:05.595Z,21.27
2019-03-06T05:08:32.045Z,19.42
2019-03-06T05:10:58.265Z,21.50
2019-03-06T05:13:25.293Z,18.85
2019-03-06T05:15:51.766Z,23.12
2019-03-06T05:18:19.914Z,26.15
2019-03-06T05:20:46.141Z,21.02
2019-03-06T05:23:12.680Z,20.45
2019-03-06T05:25:38.899Z,22.45
2019-03-06T05:28:05.163Z,21.40
2019-03-06T05:30:31.393Z,22.93
2019-03-06T05:33:07.582Z,22.75
2019-03-06T05:35:58.819Z,19.00
2019-03-06T05:38:38.035Z,20.32
2019-03-06T05:41:04.376Z,19.37
2019-03-06T05:43:30.898Z,20.05
2019-03-06T05:46:05.015Z,23.25
2019-03-06T05:48:31.575Z,18.45
2019-03-06T05:50:57.832Z,21.70
2019-03-06T05:53:24.047Z,20.35
2019-03-06T05:55:50.472Z,22.30
2019-03-06T05:58:16.713Z,17.60
2019-03-06T06:00:43.068Z,19.57
2019-03-06T06:03:09.326Z,16.62
2019-03-06T06:05:35.538Z,17.48
2019-03-06T06:08:02.215Z,17.90
2019-03-06T06:10:28.467Z,15.08
2019-03-06T06:12:55.127Z,16.40
2019-03-06T06:15:21.725Z,15.98
2019-03-06T06:17:48.087Z,15.78
2019-03-06T06:20:14.614Z,21.00
2019-03-06T06:23:00.815Z,16.42
2019-03-06T06:25:28.141Z,16.70
2019-03-06T06:27:54.694Z,15.72
2019-03-06T06:30:22.101Z,18.12
2019-03-06T06:32:48.471Z,15.55
2019-03-06T06:35:15.010Z,14.83
2019-03-06T06:37:42.642Z,16.87
2019-03-06T06:40:10.851Z,14.68
2019-03-06T06:42:37.102Z,16.62
2019-03-06T06:45:12.822Z,14.75
2019-03-06T06:48:14.494Z,17.50
2019-03-06T06:50:47.351Z,13.93
2019-03-06T06:53:23.144Z,16.12
2019-03-06T06:55:56.190Z,14.45
2019-03-06T06:58:32.170Z,15.63
2019-03-06T07:01:12.253Z,15.45
2019-03-06T07:07:03.991Z,17.23
2019-03-06T07:09:44.231Z,15.23
2019-03-06T07:12:15.108Z,15.35
2019-03-06T07:14:45.833Z,15.98
2019-03-06T07:17:14.279Z,15.00
2019-03-06T07:19:42.493Z,13.65
2019-03-06T07:22:27.519Z,17.70
2019-03-06T07:24:58.985Z,15.40
2019-03-06T07:27:36.147Z,14.10
2019-03-06T07:30:24.714Z,13.03
2019-03-06T07:33:09.500Z,13.50
2019-03-06T07:35:53.215Z,11.50
2019-03-06T07:38:20.334Z,12.90
2019-03-06T07:41:05.332Z,11.48
2019-03-06T07:43:45.824Z,15.10
2019-03-06T07:46:31.288Z,12.95
2019-03-06T07:49:08.300Z,12.68
2019-03-06T07:51:48.485Z,10.70
2019-03-06T07:54:25.257Z,9.98
2019-03-06T07:57:02.788Z,11.57
2019-03-06T07:59:29.007Z,11.30
2019-03-06T08:02:02.007Z,10.88
2019-03-06T08:04:28.544Z,11.48
2019-03-06T08:06:57.029Z,11.90
2019-03-06T08:09:23.577Z,11.53
2019-03-06T08:12:08.297Z,12.83
2019-03-06T08:14:48.880Z,14.83
2019-03-06T08:17:35.161Z,10.28
2019-03-06T08:20:20.157Z,13.98
2019-03-06T08:22:54.413Z,11.40
2019-03-06T08:25:31.410Z,9.73
2019-03-06T08:27:57.650Z,11.55
2019-03-06T08:30:25.870Z,12.15
2019-03-06T08:32:52.111Z,11.45
2019-03-06T08:35:18.357Z,12.75
2019-03-06T08:37:55.490Z,9.83
2019-03-06T08:40:21.705Z,12.63
2019-03-06T08:42:48.263Z,10.90
2019-03-06T08:45:16.427Z,11.45
2019-03-06T08:48:01.299Z,12.15
2019-03-06T08:50:35.184Z,11.25
2019-03-06T08:53:12.246Z,12.93
2019-03-06T08:55:40.567Z,10.70
2019-03-06T08:58:14.959Z,11.93
2019-03-06T09:01:00.139Z,11.28
2019-03-06T09:03:28.919Z,12.15
2019-03-06T09:06:13.971Z,12.68
2019-03-06T09:08:54.619Z,11.90
2019-03-06T09:11:26.245Z,12.58
2019-03-06T09:14:03.692Z,12.10
2019-03-06T09:16:43.274Z,11.83
2019-03-06T09:19:28.326Z,10.30
2019-03-06T09:21:56.463Z,10.63
2019-03-06T09:24:24.601Z,11.40
2019-03-06T09:26:52.852Z,9.10
2019-03-06T09:29:23.920Z,9.80
2019-03-06T09:31:54.849Z,12.83
2019-03-06T09:34:28.188Z,11.60
2019-03-06T09:37:05.027Z,10.90
2019-03-06T09:39:33.180Z,11.80
2019-03-06T09:42:10.578Z,11.27
2019-03-06T09:44:44.518Z,11.07
2019-03-06T09:47:29.685Z,11.27
2019-03-06T09:50:06.722Z,13.20
2019-03-06T09:52:51.824Z,13.17
2019-03-06T09:55:22.711Z,13.90
2019-03-06T09:57:50.855Z,13.50
2019-03-06T10:00:34.304Z,14.17
2019-03-06T10:03:11.974Z,12.20
2019-03-06T10:05:40.154Z,15.20
2019-03-06T10:08:19.105Z,11.60
2019-03-06T10:10:57.036Z,13.53
2019-03-06T10:13:19.946Z,14.87
2019-03-06T10:15:53.939Z,14.53
2019-03-06T10:18:22.060Z,12.80
2019-03-06T10:20:48.375Z,13.80
2019-03-06T10:23:15.070Z,16.03
2019-03-06T10:25:41.390Z,13.90
2019-03-06T10:28:07.756Z,12.93
2019-03-06T10:30:34.480Z,12.33
2019-03-06T10:33:01.019Z,15.00
2019-03-06T10:35:27.259Z,11.10
2019-03-06T10:37:53.692Z,15.53
2019-03-06T10:40:37.131Z,14.40
2019-03-06T10:43:03.589Z,15.87
2019-03-06T10:45:30.194Z,14.67
2019-03-06T10:47:57.791Z,12.20
2019-03-06T10:50:27.445Z,12.80
2019-03-06T10:52:52.444Z,21.97
2019-03-06T10:55:19.199Z,14.07
2019-03-06T10:57:46.031Z,16.73
2019-03-06T11:00:22.095Z,13.10
2019-03-06T11:02:49.755Z,14.10
2019-03-06T11:05:19.876Z,13.97
2019-03-06T11:07:47.234Z,15.00
2019-03-06T11:10:23.324Z,12.90
2019-03-06T11:12:42.496Z,16.00
2019-03-06T11:15:11.543Z,14.80
2019-03-06T11:17:37.898Z,13.63
2019-03-06T11:20:11.291Z,15.63
2019-03-06T11:22:37.911Z,14.90
2019-03-06T11:25:08.047Z,11.53
2019-03-06T11:27:34.377Z,13.77
2019-03-06T11:30:00.797Z,13.50
2019-03-06T11:32:27.873Z,13.23
2019-03-06T11:34:54.103Z,12.03
2019-03-06T11:37:20.922Z,12.17
2019-03-06T11:39:47.169Z,12.27
2019-03-06T11:42:13.895Z,11.97
2019-03-06T11:44:40.848Z,10.20
2019-03-06T11:47:07.181Z,9.70
2019-03-06T11:49:34.114Z,15.00
2019-03-06T11:52:00.373Z,14.00
2019-03-06T11:54:26.568Z,10.13
2019-03-06T11:56:52.921Z,12.03
2019-03-06T11:59:19.241Z,12.27
2019-03-06T12:01:48.200Z,10.63
2019-03-06T12:04:14.711Z,10.47
2019-03-06T12:06:41.430Z,8.77
2019-03-06T12:09:17.918Z,11.67
2019-03-06T12:11:44.130Z,13.90
2019-03-06T12:14:10.380Z,10.20
2019-03-06T12:16:41.740Z,12.20
2019-03-06T12:19:04.635Z,10.97
2019-03-06T12:21:30.854Z,9.10
2019-03-06T12:23:57.119Z,8.60
2019-03-06T12:26:25.953Z,8.47
2019-03-06T12:28:52.226Z,8.00
2019-03-06T12:31:18.546Z,9.07
2019-03-06T12:33:44.898Z,8.10
2019-03-06T12:36:11.219Z,8.37
2019-03-06T12:38:37.558Z,9.77
2019-03-06T12:41:04.582Z,9.13
2019-03-06T12:43:31.225Z,7.77
2019-03-06T12:46:22.739Z,11.40
2019-03-06T12:48:56.321Z,8.80
2019-03-06T12:51:22.993Z,6.40
2019-03-06T12:53:49.228Z,9.30
2019-03-06T12:56:15.557Z,6.73
2019-03-06T12:58:42.070Z,7.20
2019-03-06T13:01:08.509Z,8.50
2019-03-06T13:03:34.912Z,8.97
2019-03-06T13:06:01.139Z,9.17
2019-03-06T13:08:27.365Z,7.57
2019-03-06T13:10:54.245Z,7.13
2019-03-06T13:13:20.479Z,6.83
2019-03-06T13:15:47.120Z,7.13
2019-03-06T13:18:13.654Z,7.40
2019-03-06T13:20:39.974Z,6.00
2019-03-06T13:23:08.234Z,7.60
2019-03-06T13:25:34.566Z,6.60
2019-03-06T13:28:00.932Z,6.27
2019-03-06T13:30:27.953Z,6.93
2019-03-06T13:33:09.492Z,8.20
2019-03-06T13:35:37.747Z,10.93
2019-03-06T13:38:04.580Z,7.80
2019-03-06T13:40:30.830Z,7.13
2019-03-06T13:42:57.354Z,6.80
2019-03-06T13:45:24.329Z,7.10
2019-03-06T13:47:51.084Z,11.80
2019-03-06T13:50:17.867Z,7.50
2019-03-06T13:52:44.140Z,6.43
2019-03-06T13:55:12.354Z,6.23
2019-03-06T13:57:39.015Z,6.40
2019-03-06T14:00:12.202Z,6.33
2019-03-06T14:02:38.426Z,7.83
2019-03-06T14:05:06.267Z,5.77
2019-03-06T14:07:32.692Z,5.00
2019-03-06T14:09:58.934Z,6.20
2019-03-06T14:12:25.147Z,4.77
2019-03-06T14:14:51.602Z,5.30
2019-03-06T14:17:18.150Z,4.67
2019-03-06T14:19:45.099Z,5.17
2019-03-06T14:22:11.562Z,4.30
2019-03-06T14:24:38.185Z,4.97
2019-03-06T14:27:05.595Z,5.23
2019-03-06T14:29:31.835Z,4.43
2019-03-06T14:31:58.108Z,6.67
2019-03-06T14:34:24.650Z,4.90
2019-03-06T14:36:51.080Z,4.40
2019-03-06T14:39:20.312Z,5.03
2019-03-06T14:41:46.647Z,5.10
2019-03-06T14:44:12.996Z,4.87
2019-03-06T14:46:39.742Z,4.93
2019-03-06T14:49:05.987Z,5.40
2019-03-06T14:51:32.210Z,5.47
2019-03-06T14:53:58.475Z,4.60
2019-03-06T14:56:25.101Z,5.10
2019-03-06T14:58:51.315Z,3.93
2019-03-06T15:01:17.868Z,5.80
2019-03-06T15:03:44.389Z,6.13
2019-03-06T15:06:12.576Z,4.50
2019-03-06T15:08:38.663Z,8.50
2019-03-06T15:11:04.926Z,5.00
2019-03-06T15:13:31.291Z,4.30
2019-03-06T15:15:57.901Z,6.57
2019-03-06T15:18:24.131Z,4.63
2019-03-06T15:20:50.379Z,5.80
2019-03-06T15:23:16.743Z,5.33
2019-03-06T15:25:42.963Z,4.20
2019-03-06T15:28:09.179Z,5.17
2019-03-06T15:30:35.532Z,3.83
2019-03-06T15:33:02.262Z,3.97
2019-03-06T15:35:28.599Z,4.17
2019-03-06T15:37:54.827Z,3.83
2019-03-06T15:40:32.673Z,4.23
2019-03-06T15:42:59.095Z,6.37
2019-03-06T15:45:30.282Z,4.77
2019-03-06T15:47:59.395Z,7.40
2019-03-06T15:50:26.392Z,3.80
2019-03-06T15:52:53.457Z,4.73
2019-03-06T15:55:24.303Z,4.10
2019-03-06T15:57:50.551Z,4.50
2019-03-06T16:00:32.779Z,6.40
2019-03-06T16:02:59.214Z,5.70
2019-03-06T16:05:25.749Z,5.03
2019-03-06T16:07:54.513Z,4.97
2019-03-06T16:10:21.318Z,4.90
2019-03-06T16:12:47.964Z,6.23
2019-03-06T16:15:14.738Z,4.37
2019-03-06T16:17:41.150Z,3.50
2019-03-06T16:20:13.730Z,5.27
2019-03-06T16:22:40.155Z,3.70
2019-03-06T16:25:06.716Z,3.90
2019-03-06T16:27:33.310Z,4.53
2019-03-06T16:29:59.548Z,5.47
2019-03-06T16:32:27.960Z,5.63
2019-03-06T16:34:54.007Z,6.03
2019-03-06T16:37:21.271Z,4.83
2019-03-06T16:39:47.497Z,4.33
2019-03-06T16:42:13.853Z,4.93
2019-03-06T16:44:40.399Z,5.30
2019-03-06T16:47:07.176Z,6.17
2019-03-06T16:49:33.515Z,6.30
2019-03-06T16:52:00.219Z,4.43
2019-03-06T16:54:26.542Z,3.93
2019-03-06T16:56:52.789Z,4.90
2019-03-06T16:59:19.004Z,4.20
2019-03-06T17:01:45.354Z,13.20
2019-03-06T17:04:11.768Z,3.70
2019-03-06T17:06:38.119Z,12.13
2019-03-06T17:09:04.651Z,3.60
2019-03-06T17:11:30.999Z,6.10
2019-03-06T17:13:57.236Z,4.60
2019-03-06T17:16:24.041Z,4.27
2019-03-06T17:18:50.480Z,5.03
2019-03-06T17:21:16.951Z,5.53
2019-03-06T17:24:03.347Z,4.20
2019-03-06T17:26:29.795Z,4.30
2019-03-06T17:28:56.008Z,5.27
2019-03-06T17:31:22.711Z,4.90
2019-03-06T17:33:48.943Z,7.40
2019-03-06T17:36:15.288Z,5.20
2019-03-06T17:38:41.511Z,4.40
2019-03-06T17:41:07.903Z,4.30
2019-03-06T17:43:34.787Z,5.73
2019-03-06T17:46:01.279Z,4.37
2019-03-06T17:48:27.499Z,5.67
2019-03-06T17:50:53.738Z,4.77
2019-03-06T17:53:19.964Z,6.03
2019-03-06T17:55:46.322Z,5.80
2019-03-06T17:58:12.658Z,7.60
2019-03-06T18:00:40.791Z,6.50
2019-03-06T18:03:08.763Z,4.73
2019-03-06T18:05:34.983Z,4.73
2019-03-06T18:08:07.319Z,5.70
2019-03-06T18:10:33.782Z,4.73
2019-03-06T18:13:00.127Z,5.40
2019-03-06T18:15:26.648Z,5.10
2019-03-06T18:17:52.891Z,17.43
2019-03-06T18:20:19.563Z,6.00
2019-03-06T18:22:45.914Z,5.43
2019-03-06T18:25:14.935Z,6.20
2019-03-06T18:27:41.183Z,6.43
2019-03-06T18:30:10.910Z,7.40
2019-03-06T18:32:37.860Z,6.37
2019-03-06T18:35:06.783Z,7.37
2019-03-06T18:37:33.034Z,6.50
2019-03-06T18:39:59.638Z,7.10
2019-03-06T18:42:26.172Z,8.63
2019-03-06T18:44:52.563Z,5.63
2019-03-06T18:47:19.147Z,6.23
2019-03-06T18:49:45.687Z,6.07
2019-03-06T18:52:12.138Z,8.23
2019-03-06T18:54:38.363Z,10.53
2019-03-06T18:57:04.980Z,6.10
2019-03-06T18:59:31.515Z,8.57
2019-03-06T19:01:58.072Z,5.47
2019-03-06T19:04:24.697Z,7.53
2019-03-06T19:06:51.036Z,10.33
2019-03-06T19:09:17.272Z,5.67
2019-03-06T19:11:43.911Z,5.57
2019-03-06T19:14:10.215Z,7.33
2019-03-06T19:16:36.472Z,6.30
2019-03-06T19:19:03.386Z,6.30
2019-03-06T19:21:29.612Z,6.33
2019-03-06T19:23:56.267Z,9.70
2019-03-06T19:26:22.482Z,6.83
2019-03-06T19:28:48.712Z,6.90
2019-03-06T19:31:16.987Z,9.13
2019-03-06T19:33:43.427Z,6.10
2019-03-06T19:36:09.984Z,5.93
2019-03-06T19:38:36.206Z,6.37
2019-03-06T19:41:02.827Z,7.80
2019-03-06T19:43:29.074Z,7.17
2019-03-06T19:45:55.381Z,6.70
2019-03-06T19:48:21.620Z,7.30
2019-03-06T19:50:48.035Z,7.47
2019-03-06T19:53:14.279Z,7.57
2019-03-06T19:55:40.725Z,7.13
2019-03-06T19:58:09.860Z,6.30
2019-03-06T20:00:36.222Z,6.77
2019-03-06T20:03:05.384Z,6.33
2019-03-06T20:05:34.650Z,6.97
2019-03-06T20:08:05.152Z,7.40
2019-03-06T20:10:31.814Z,9.30
2019-03-06T20:12:58.470Z,6.33
2019-03-06T20:15:25.006Z,8.03
2019-03-06T20:17:51.237Z,9.13
2019-03-06T20:20:18.089Z,6.50
2019-03-06T20:22:45.313Z,7.20
2019-03-06T20:25:12.397Z,7.03
2019-03-06T20:27:38.694Z,6.40
2019-03-06T20:30:11.183Z,6.67
2019-03-06T20:32:37.434Z,8.57
2019-03-06T20:35:04.860Z,5.77
2019-03-06T20:37:31.113Z,7.80
2019-03-06T20:39:57.710Z,7.40
2019-03-06T20:42:23.968Z,6.13
2019-03-06T20:44:50.410Z,6.97
2019-03-06T20:47:17.015Z,6.97
2019-03-06T20:49:43.260Z,5.77
2019-03-06T20:52:09.815Z,6.60
2019-03-06T20:54:36.064Z,6.80
2019-03-06T20:57:02.394Z,6.30
2019-03-06T20:59:28.987Z,7.27
2019-03-06T21:01:55.522Z,8.30
2019-03-06T21:04:22.450Z,8.03
2019-03-06T21:06:48.756Z,7.83
2019-03-06T21:09:17.029Z,7.17
2019-03-06T21:11:43.505Z,7.10
2019-03-06T21:14:09.987Z,6.63
2019-03-06T21:16:37.338Z,6.20
2019-03-06T21:19:04.032Z,6.83
2019-03-06T21:21:30.771Z,6.50
2019-03-06T21:23:57.420Z,5.97
2019-03-06T21:26:23.662Z,5.93
2019-03-06T21:28:50.061Z,7.20
2019-03-06T21:31:16.472Z,6.13
2019-03-06T21:33:43.113Z,5.60
2019-03-06T21:36:09.699Z,6.30
2019-03-06T21:38:35.927Z,6.03
2019-03-06T21:41:02.155Z,5.90
2019-03-06T21:43:28.425Z,6.30
2019-03-06T21:45:54.760Z,6.50
2019-03-06T21:48:21.070Z,6.30
2019-03-06T21:50:47.294Z,8.53
2019-03-06T21:53:14.017Z,5.80
2019-03-06T21:55:40.322Z,6.37
2019-03-06T21:58:06.546Z,5.97
2019-03-06T22:00:32.841Z,6.40
2019-03-06T22:02:59.090Z,7.17
2019-03-06T22:05:25.344Z,6.37
2019-03-06T22:07:52.153Z,7.63
2019-03-06T22:10:18.403Z,6.50
2019-03-06T22:12:44.833Z,6.03
2019-03-06T22:15:15.634Z,6.10
2019-03-06T22:17:44.883Z,7.13
2019-03-06T22:20:12.931Z,7.90
2019-03-06T22:22:39.331Z,7.50
2019-03-06T22:25:15.894Z,7.53
2019-03-06T22:27:44.155Z,6.43
2019-03-06T22:30:18.876Z,6.30
2019-03-06T22:32:46.398Z,6.07
2019-03-06T22:35:14.334Z,5.70
2019-03-06T22:37:40.650Z,5.57
2019-03-06T22:40:10.007Z,5.90
2019-03-06T22:42:36.253Z,5.40
2019-03-06T22:45:04.716Z,5.07
2019-03-06T22:47:30.998Z,5.53
2019-03-06T22:49:57.263Z,5.30
2019-03-06T22:52:23.474Z,6.37
2019-03-06T22:54:50.082Z,4.87
2019-03-06T22:57:16.310Z,4.80
2019-03-06T22:59:42.727Z,5.90
2019-03-06T23:02:09.294Z,4.97
2019-03-06T23:04:35.806Z,4.57
2019-03-06T23:07:02.164Z,4.60
2019-03-06T23:09:28.451Z,4.00
2019-03-06T23:11:54.659Z,4.43
2019-03-06T23:14:20.911Z,4.00
2019-03-06T23:16:47.446Z,4.27
2019-03-06T23:19:13.702Z,4.60
2019-03-06T23:21:39.926Z,4.20
2019-03-06T23:24:06.560Z,4.70
2019-03-06T23:26:42.278Z,5.20
2019-03-06T23:29:00.841Z,6.90
2019-03-06T23:31:27.199Z,4.13
2019-03-06T23:33:53.628Z,5.20
2019-03-06T23:36:19.854Z,3.90
2019-03-06T23:38:46.167Z,5.40
2019-03-06T23:41:12.387Z,4.03
2019-03-06T23:43:38.952Z,6.57
2019-03-06T23:46:05.180Z,5.73
2019-03-06T23:48:31.390Z,3.67
2019-03-06T23:50:59.247Z,6.53
2019-03-06T23:53:27.419Z,4.50
2019-03-06T23:55:53.979Z,4.70
2019-03-06T23:58:20.214Z,4.30
